KSCF/SCF METAR and TAF weather

Enter ICAO airport designator
Station Type Date Time Source
KSCF METAR 2019/08/21 09:15 UTC NOAA

KSCF 210915Z AUTO 00000KT 10SM 29/23 A3001 RMK A01


Station Type Date Time Source
KSCF Decoded METAR 2019/08/21 09:15 UTC NOAA

Station name not available
Aug 21, 2019 - 05:15 AM EDT / 2019.08.21 0915 UTC
Wind: Calm:0
Visibility: 10 mile(s):0
Temperature: 84 F (29 C)
Dew Point: 73 F (23 C)
Relative Humidity: 70%
Pressure (altimeter): 30.01 in. Hg (1016 hPa)
ob: KSCF 210915Z AUTO 00000KT 10SM 29/23 A3001 RMK A01
cycle: 9

Station Type Date Time Source
KSCF TAF UTC NOAA

Error!

Example: see airport list